Terminal Aerodrome Forecast
Issued by NWS

Home | Current Version | Previous Version | Text Only | Print | Product List | Glossary On
Versions: 1 2 3 4 5 6 7 8 9 10 11 12 13
000
FTUS43 KICT 031122
TAFHUT
TAF
KHUT 031122Z 0312/0412 17006KT P6SM SCT200
     FM031700 18010KT P6SM FEW050 BKN250
     FM040100 16008KT P6SM BKN100=

USA.gov is the U.S. government's official web portal to all federal, state and local government web resources and services.